createdAt,value
2023-01-10T00:00:11.164Z,959.57
2023-01-10T00:01:16.767Z,959.55
2023-01-10T00:02:22.505Z,959.59
2023-01-10T00:03:28.123Z,959.55
2023-01-10T00:04:33.778Z,959.63
2023-01-10T00:05:39.423Z,959.61
2023-01-10T00:06:45.021Z,959.58
2023-01-10T00:07:50.677Z,959.54
2023-01-10T00:08:56.288Z,959.64
2023-01-10T00:10:01.892Z,959.75
2023-01-10T00:11:07.605Z,959.69
2023-01-10T00:12:13.212Z,959.68
2023-01-10T00:13:18.854Z,959.62
2023-01-10T00:14:24.445Z,959.73
2023-01-10T00:15:30.102Z,959.70
2023-01-10T00:16:35.728Z,959.68
2023-01-10T00:17:41.348Z,959.71
2023-01-10T00:18:46.958Z,959.68
2023-01-10T00:19:52.581Z,959.70
2023-01-10T00:20:58.215Z,959.67
2023-01-10T00:22:03.832Z,959.72
2023-01-10T00:23:09.444Z,959.77
2023-01-10T00:24:15.099Z,959.74
2023-01-10T00:25:20.702Z,959.77
2023-01-10T00:26:27.094Z,959.76
2023-01-10T00:27:32.750Z,959.77
2023-01-10T00:28:38.400Z,959.77
2023-01-10T00:29:44.023Z,959.80
2023-01-10T00:30:49.768Z,959.81
2023-01-10T00:31:55.368Z,959.84
2023-01-10T00:33:01.018Z,959.82
2023-01-10T00:34:06.640Z,959.90
2023-01-10T00:35:12.261Z,959.96
2023-01-10T00:36:17.915Z,959.96
2023-01-10T00:37:23.525Z,959.90
2023-01-10T00:38:29.152Z,959.96
2023-01-10T00:39:34.789Z,960.05
2023-01-10T00:40:40.631Z,959.95
2023-01-10T00:41:46.268Z,960.04
2023-01-10T00:42:51.899Z,960.04
2023-01-10T00:43:57.552Z,960.10
2023-01-10T00:45:03.161Z,960.05
2023-01-10T00:46:08.877Z,960.08
2023-01-10T00:47:14.495Z,960.05
2023-01-10T00:48:20.135Z,960.14
2023-01-10T00:49:25.789Z,960.18
2023-01-10T00:50:31.585Z,960.16
2023-01-10T00:51:37.240Z,960.22
2023-01-10T00:52:42.904Z,960.17
2023-01-10T00:53:48.561Z,960.20
2023-01-10T00:54:54.184Z,960.26
2023-01-10T00:56:00.506Z,960.25
2023-01-10T00:57:06.190Z,960.28
2023-01-10T00:58:12.600Z,960.22
2023-01-10T00:59:19.008Z,960.33
2023-01-10T01:00:25.627Z,960.34
2023-01-10T01:01:36.975Z,960.38
2023-01-10T01:02:44.955Z,960.29
2023-01-10T01:03:51.521Z,960.37
2023-01-10T01:05:00.102Z,960.38
2023-01-10T01:06:06.559Z,960.40
2023-01-10T01:07:12.973Z,960.43
2023-01-10T01:08:20.150Z,960.36
2023-01-10T01:09:27.988Z,960.44
2023-01-10T01:10:34.322Z,960.49
2023-01-10T01:11:40.418Z,960.55
2023-01-10T01:12:47.751Z,960.53
2023-01-10T01:13:55.952Z,960.53
2023-01-10T01:15:03.032Z,960.59
2023-01-10T01:16:09.191Z,960.59
2023-01-10T01:17:16.099Z,960.60
2023-01-10T01:18:22.943Z,960.55
2023-01-10T01:19:28.688Z,960.58
2023-01-10T01:20:35.304Z,960.59
2023-01-10T01:21:41.693Z,960.56
2023-01-10T01:22:48.177Z,960.70
2023-01-10T01:23:55.168Z,960.68
2023-01-10T01:25:01.117Z,960.76
2023-01-10T01:26:07.455Z,960.75
2023-01-10T01:27:13.851Z,960.72
2023-01-10T01:28:20.479Z,960.77
2023-01-10T01:29:38.474Z,960.79
2023-01-10T01:30:39.379Z,960.85
2023-01-10T01:31:45.543Z,960.90
2023-01-10T01:32:52.075Z,960.90
2023-01-10T01:33:59.096Z,960.81
2023-01-10T01:35:05.096Z,960.91
2023-01-10T01:36:10.772Z,960.91
2023-01-10T01:37:17.204Z,960.95
2023-01-10T01:38:23.253Z,961.09
2023-01-10T01:39:30.173Z,961.08
2023-01-10T01:40:36.397Z,961.07
2023-01-10T01:41:42.383Z,961.25
2023-01-10T01:42:48.290Z,961.15
2023-01-10T01:43:55.234Z,961.25
2023-01-10T01:45:01.984Z,961.20
2023-01-10T01:46:08.598Z,961.24
2023-01-10T01:47:15.182Z,961.39
2023-01-10T01:48:22.243Z,961.45
2023-01-10T01:49:29.639Z,961.47
2023-01-10T01:50:36.081Z,961.44
2023-01-10T01:51:42.430Z,961.52
2023-01-10T01:52:48.180Z,961.53
2023-01-10T01:53:54.476Z,961.59
2023-01-10T01:55:00.356Z,961.58
2023-01-10T01:56:06.021Z,961.58
2023-01-10T01:57:11.612Z,961.56
2023-01-10T01:58:17.189Z,961.59
2023-01-10T01:59:22.999Z,961.61
2023-01-10T02:00:28.670Z,961.55
2023-01-10T02:01:35.151Z,961.59
2023-01-10T02:02:44.121Z,961.54
2023-01-10T02:03:52.477Z,961.70
2023-01-10T02:04:58.064Z,961.63
2023-01-10T02:06:03.707Z,961.58
2023-01-10T02:07:09.346Z,961.60
2023-01-10T02:08:14.950Z,961.62
2023-01-10T02:09:20.604Z,961.70
2023-01-10T02:10:26.197Z,961.60
2023-01-10T02:11:31.869Z,961.60
2023-01-10T02:12:37.498Z,961.63
2023-01-10T02:13:43.082Z,961.70
2023-01-10T02:14:48.724Z,961.61
2023-01-10T02:15:54.373Z,961.67
2023-01-10T02:16:59.966Z,961.70
2023-01-10T02:18:05.526Z,961.71
2023-01-10T02:19:11.179Z,961.72
2023-01-10T02:20:16.785Z,961.66
2023-01-10T02:21:22.284Z,961.77
2023-01-10T02:22:27.771Z,961.75
2023-01-10T02:23:33.262Z,961.83
2023-01-10T02:24:38.735Z,961.90
2023-01-10T02:25:44.282Z,961.94
2023-01-10T02:26:49.795Z,961.94
2023-01-10T02:27:55.316Z,962.00
2023-01-10T02:29:00.834Z,962.06
2023-01-10T02:30:06.307Z,962.06
2023-01-10T02:31:11.801Z,962.10
2023-01-10T02:32:18.793Z,962.08
2023-01-10T02:33:25.471Z,962.16
2023-01-10T02:34:30.975Z,962.13
2023-01-10T02:35:36.492Z,962.12
2023-01-10T02:36:42.068Z,962.14
2023-01-10T02:37:47.648Z,962.22
2023-01-10T02:38:53.266Z,962.17
2023-01-10T02:39:58.928Z,962.23
2023-01-10T02:41:04.470Z,962.23
2023-01-10T02:42:10.076Z,962.24
2023-01-10T02:43:15.748Z,962.24
2023-01-10T02:44:21.408Z,962.32
2023-01-10T02:45:27.840Z,962.27
2023-01-10T02:46:33.710Z,962.36
2023-01-10T02:47:39.302Z,962.30
2023-01-10T02:48:44.881Z,962.34
2023-01-10T02:49:50.524Z,962.43
2023-01-10T02:50:56.178Z,962.42
2023-01-10T02:52:01.796Z,962.41
2023-01-10T02:53:07.433Z,962.47
2023-01-10T02:54:13.045Z,962.47
2023-01-10T02:55:18.660Z,962.46
2023-01-10T02:56:24.271Z,962.43
2023-01-10T02:57:29.865Z,962.46
2023-01-10T02:58:35.553Z,962.51
2023-01-10T02:59:41.206Z,962.50
2023-01-10T03:00:46.874Z,962.59
2023-01-10T03:01:52.574Z,962.55
2023-01-10T03:02:58.353Z,962.60
2023-01-10T03:04:04.022Z,962.56
2023-01-10T03:05:09.824Z,962.64
2023-01-10T03:06:15.572Z,962.65
2023-01-10T03:07:21.288Z,962.70
2023-01-10T03:08:26.957Z,962.71
2023-01-10T03:09:34.393Z,962.75
2023-01-10T03:10:40.176Z,962.84
2023-01-10T03:11:45.898Z,962.87
2023-01-10T03:12:51.595Z,962.90
2023-01-10T03:13:57.264Z,962.90
2023-01-10T03:15:02.957Z,962.92
2023-01-10T03:16:08.713Z,962.98
2023-01-10T03:17:14.407Z,962.95
2023-01-10T03:18:20.102Z,962.99
2023-01-10T03:19:25.806Z,963.01
2023-01-10T03:20:31.513Z,963.04
2023-01-10T03:21:37.212Z,963.03
2023-01-10T03:22:42.913Z,963.01
2023-01-10T03:23:51.315Z,963.05
2023-01-10T03:24:56.996Z,963.07
2023-01-10T03:26:02.758Z,963.14
2023-01-10T03:27:08.414Z,963.14
2023-01-10T03:28:14.093Z,963.23
2023-01-10T03:29:19.797Z,963.25
2023-01-10T03:30:26.342Z,963.31
2023-01-10T03:31:32.800Z,963.36
2023-01-10T03:32:39.308Z,963.27
2023-01-10T03:33:45.128Z,963.34
2023-01-10T03:34:50.901Z,963.34
2023-01-10T03:35:56.709Z,963.38
2023-01-10T03:37:02.469Z,963.40
2023-01-10T03:38:08.526Z,963.48
2023-01-10T03:39:14.289Z,963.49
2023-01-10T03:40:20.129Z,963.51
2023-01-10T03:41:26.077Z,963.55
2023-01-10T03:42:32.190Z,963.52
2023-01-10T03:43:37.855Z,963.58
2023-01-10T03:44:44.099Z,963.51
2023-01-10T03:45:49.938Z,963.56
2023-01-10T03:46:55.952Z,963.64
2023-01-10T03:48:01.811Z,963.59
2023-01-10T03:49:07.816Z,963.67
2023-01-10T03:50:13.495Z,963.67
2023-01-10T03:51:19.197Z,963.73
2023-01-10T03:52:24.991Z,963.74
2023-01-10T03:53:30.990Z,963.74
2023-01-10T03:54:36.686Z,963.79
2023-01-10T03:55:42.429Z,963.81
2023-01-10T03:56:48.149Z,963.72
2023-01-10T03:57:54.000Z,963.71
2023-01-10T03:58:59.799Z,963.78
2023-01-10T04:00:05.498Z,963.85
2023-01-10T04:01:11.632Z,963.74
2023-01-10T04:02:17.330Z,963.89
2023-01-10T04:03:23.032Z,963.87
2023-01-10T04:04:28.815Z,963.88
2023-01-10T04:05:34.495Z,963.88
2023-01-10T04:06:40.210Z,963.85
2023-01-10T04:07:45.959Z,963.92
2023-01-10T04:08:52.058Z,963.94
2023-01-10T04:09:57.761Z,963.99
2023-01-10T04:11:03.521Z,963.91
2023-01-10T04:12:09.656Z,964.03
2023-01-10T04:13:15.365Z,964.05
2023-01-10T04:14:21.262Z,964.09
2023-01-10T04:15:27.038Z,964.15
2023-01-10T04:16:33.790Z,964.18
2023-01-10T04:17:39.743Z,964.09
2023-01-10T04:18:45.511Z,964.18
2023-01-10T04:19:51.349Z,964.16
2023-01-10T04:20:57.891Z,964.26
2023-01-10T04:22:03.769Z,964.21
2023-01-10T04:23:10.150Z,964.26
2023-01-10T04:24:16.091Z,964.28
2023-01-10T04:25:22.752Z,964.26
2023-01-10T04:26:28.591Z,964.40
2023-01-10T04:27:34.289Z,964.36
2023-01-10T04:28:40.087Z,964.37
2023-01-10T04:29:45.847Z,964.36
2023-01-10T04:30:51.627Z,964.36
2023-01-10T04:31:57.493Z,964.39
2023-01-10T04:33:03.257Z,964.40
2023-01-10T04:34:09.045Z,964.35
2023-01-10T04:35:14.731Z,964.40
2023-01-10T04:36:20.436Z,964.45
2023-01-10T04:37:26.127Z,964.44
2023-01-10T04:38:31.812Z,964.45
2023-01-10T04:39:37.499Z,964.41
2023-01-10T04:40:43.194Z,964.50
2023-01-10T04:41:48.896Z,964.43
2023-01-10T04:42:54.600Z,964.53
2023-01-10T04:44:00.336Z,964.50
2023-01-10T04:45:06.478Z,964.46
2023-01-10T04:46:12.161Z,964.52
2023-01-10T04:47:17.830Z,964.54
2023-01-10T04:48:24.346Z,964.55
2023-01-10T04:49:30.178Z,964.57
2023-01-10T04:50:35.912Z,964.62
2023-01-10T04:51:41.745Z,964.62
2023-01-10T04:52:47.521Z,964.62
2023-01-10T04:53:53.349Z,964.68
2023-01-10T04:54:59.109Z,964.66
2023-01-10T04:56:04.793Z,964.70
2023-01-10T04:57:10.540Z,964.77
2023-01-10T04:58:16.150Z,964.78
2023-01-10T04:59:21.762Z,964.81
2023-01-10T05:00:27.387Z,964.83
2023-01-10T05:01:33.090Z,964.84
2023-01-10T05:02:38.740Z,964.95
2023-01-10T05:03:44.381Z,964.87
2023-01-10T05:04:50.056Z,964.93
2023-01-10T05:05:55.762Z,964.98
2023-01-10T05:07:01.839Z,965.03
2023-01-10T05:08:07.447Z,964.98
2023-01-10T05:09:13.248Z,965.08
2023-01-10T05:10:18.736Z,965.09
2023-01-10T05:11:24.993Z,965.10
2023-01-10T05:12:30.757Z,965.08
2023-01-10T05:13:36.448Z,965.08
2023-01-10T05:14:42.716Z,965.14
2023-01-10T05:15:49.013Z,965.18
2023-01-10T05:16:55.335Z,965.21
2023-01-10T05:18:01.225Z,965.19
2023-01-10T05:19:06.937Z,965.23
2023-01-10T05:20:12.546Z,965.27
2023-01-10T05:21:18.146Z,965.36
2023-01-10T05:22:23.889Z,965.32
2023-01-10T05:23:30.191Z,965.33
2023-01-10T05:24:35.980Z,965.41
2023-01-10T05:25:41.691Z,965.38
2023-01-10T05:26:47.231Z,965.36
2023-01-10T05:27:52.775Z,965.38
2023-01-10T05:28:58.343Z,965.39
2023-01-10T05:30:04.066Z,965.41
2023-01-10T05:31:09.673Z,965.42
2023-01-10T05:32:15.327Z,965.45
2023-01-10T05:33:20.961Z,965.47
2023-01-10T05:34:26.591Z,965.51
2023-01-10T05:35:32.195Z,965.57
2023-01-10T05:36:37.794Z,965.54
2023-01-10T05:37:43.472Z,965.57
2023-01-10T05:38:49.414Z,965.55
2023-01-10T05:39:55.026Z,965.49
2023-01-10T05:41:00.740Z,965.40
2023-01-10T05:42:07.057Z,965.56
2023-01-10T05:43:12.754Z,965.56
2023-01-10T05:44:19.123Z,965.50
2023-01-10T05:45:25.527Z,965.59
2023-01-10T05:46:31.246Z,965.60
2023-01-10T05:47:37.019Z,965.69
2023-01-10T05:48:42.700Z,965.64
2023-01-10T05:49:48.287Z,965.70
2023-01-10T05:50:53.941Z,965.80
2023-01-10T05:51:59.539Z,965.74
2023-01-10T05:53:05.204Z,965.79
2023-01-10T05:54:10.831Z,965.83
2023-01-10T05:55:16.452Z,965.89
2023-01-10T05:56:22.056Z,965.90
2023-01-10T05:57:27.632Z,965.92
2023-01-10T05:58:33.251Z,965.96
2023-01-10T05:59:38.869Z,966.00
2023-01-10T06:00:44.534Z,966.07
2023-01-10T06:01:50.173Z,966.06
2023-01-10T06:02:55.848Z,966.05
2023-01-10T06:04:01.547Z,966.08
2023-01-10T06:05:07.179Z,966.04
2023-01-10T06:06:12.857Z,966.03
2023-01-10T06:07:18.509Z,966.08
2023-01-10T06:08:24.158Z,966.03
2023-01-10T06:09:29.775Z,965.99
2023-01-10T06:10:35.477Z,965.92
2023-01-10T06:11:41.119Z,965.90
2023-01-10T06:12:46.736Z,965.91
2023-01-10T06:13:52.359Z,965.98
2023-01-10T06:14:58.001Z,966.00
2023-01-10T06:16:03.656Z,965.98
2023-01-10T06:17:09.378Z,966.05
2023-01-10T06:18:14.972Z,966.15
2023-01-10T06:19:20.611Z,966.12
2023-01-10T06:20:26.280Z,966.13
2023-01-10T06:21:31.897Z,966.15
2023-01-10T06:22:37.509Z,966.20
2023-01-10T06:23:43.154Z,966.19
2023-01-10T06:24:48.762Z,966.21
2023-01-10T06:25:54.347Z,966.17
2023-01-10T06:26:59.942Z,966.20
2023-01-10T06:28:05.447Z,966.12
2023-01-10T06:29:10.941Z,966.16
2023-01-10T06:30:16.443Z,966.13
2023-01-10T06:31:22.795Z,966.10
2023-01-10T06:32:28.354Z,966.18
2023-01-10T06:33:33.893Z,966.11
2023-01-10T06:34:39.427Z,966.15
2023-01-10T06:35:45.040Z,966.25
2023-01-10T06:36:50.660Z,966.33
2023-01-10T06:37:56.239Z,966.38
2023-01-10T06:39:01.847Z,966.36
2023-01-10T06:40:07.434Z,966.35
2023-01-10T06:41:13.321Z,966.48
2023-01-10T06:42:18.927Z,966.50
2023-01-10T06:43:25.910Z,966.55
2023-01-10T06:44:31.678Z,966.58
2023-01-10T06:45:37.262Z,966.72
2023-01-10T06:46:42.809Z,966.63
2023-01-10T06:47:48.448Z,966.54
2023-01-10T06:48:54.025Z,966.55
2023-01-10T06:49:59.537Z,966.57
2023-01-10T06:51:05.072Z,966.61
2023-01-10T06:52:10.562Z,966.60
2023-01-10T06:53:16.114Z,966.55
2023-01-10T06:54:21.587Z,966.60
2023-01-10T06:55:27.071Z,966.63
2023-01-10T06:56:32.557Z,966.62
2023-01-10T06:57:38.109Z,966.72
2023-01-10T06:58:44.032Z,966.74
2023-01-10T06:59:49.576Z,966.78
2023-01-10T07:00:55.158Z,966.78
2023-01-10T07:02:00.779Z,966.85
2023-01-10T07:03:06.339Z,966.91
2023-01-10T07:04:11.988Z,966.94
2023-01-10T07:05:17.476Z,967.00
2023-01-10T07:06:22.990Z,966.96
2023-01-10T07:07:28.475Z,966.92
2023-01-10T07:08:33.975Z,966.94
2023-01-10T07:09:39.558Z,967.02
2023-01-10T07:10:45.154Z,967.01
2023-01-10T07:11:50.741Z,967.08
2023-01-10T07:12:56.252Z,967.04
2023-01-10T07:14:01.825Z,967.04
2023-01-10T07:15:07.472Z,967.04
2023-01-10T07:16:13.277Z,967.08
2023-01-10T07:17:18.907Z,967.06
2023-01-10T07:18:24.537Z,967.09
2023-01-10T07:19:31.591Z,967.14
2023-01-10T07:20:37.290Z,967.11
2023-01-10T07:21:42.900Z,967.17
2023-01-10T07:22:48.500Z,967.23
2023-01-10T07:23:54.086Z,967.27
2023-01-10T07:24:59.684Z,967.24
2023-01-10T07:26:05.281Z,967.26
2023-01-10T07:27:10.915Z,967.31
2023-01-10T07:28:16.505Z,967.37
2023-01-10T07:29:22.067Z,967.28
2023-01-10T07:30:27.650Z,967.34
2023-01-10T07:31:33.313Z,967.35
2023-01-10T07:32:38.908Z,967.34
2023-01-10T07:33:44.511Z,967.38
2023-01-10T07:34:50.173Z,967.33
2023-01-10T07:35:55.864Z,967.35
2023-01-10T07:37:01.454Z,967.31
2023-01-10T07:38:07.351Z,967.30
2023-01-10T07:39:13.012Z,967.25
2023-01-10T07:40:20.212Z,967.29
2023-01-10T07:41:26.089Z,967.26
2023-01-10T07:42:31.887Z,967.25
2023-01-10T07:43:37.571Z,967.21
2023-01-10T07:44:44.034Z,967.26
2023-01-10T07:45:49.784Z,967.25
2023-01-10T07:46:55.526Z,967.30
2023-01-10T07:48:01.206Z,967.40
2023-01-10T07:49:06.938Z,967.44
2023-01-10T07:50:12.619Z,967.47
2023-01-10T07:51:18.309Z,967.51
2023-01-10T07:52:23.987Z,967.57
2023-01-10T07:53:29.691Z,967.61
2023-01-10T07:54:35.382Z,967.71
2023-01-10T07:55:41.521Z,967.65
2023-01-10T07:56:47.640Z,967.65
2023-01-10T07:57:54.212Z,967.71
2023-01-10T07:58:59.931Z,967.71
2023-01-10T08:00:05.619Z,967.73
2023-01-10T08:01:11.613Z,967.65
2023-01-10T08:02:17.645Z,967.67
2023-01-10T08:03:23.417Z,967.62
2023-01-10T08:04:29.109Z,967.68
2023-01-10T08:05:34.820Z,967.71
2023-01-10T08:06:40.726Z,967.81
2023-01-10T08:07:46.650Z,967.75
2023-01-10T08:08:52.295Z,967.83
2023-01-10T08:09:57.978Z,967.81
2023-01-10T08:11:03.634Z,967.79
2023-01-10T08:12:09.273Z,967.82
2023-01-10T08:13:18.883Z,967.82
2023-01-10T08:14:24.874Z,967.89
2023-01-10T08:15:30.484Z,967.85
2023-01-10T08:16:36.272Z,967.87
2023-01-10T08:17:41.904Z,967.88
2023-01-10T08:18:47.540Z,967.87
2023-01-10T08:19:53.343Z,967.85
2023-01-10T08:20:58.974Z,967.90
2023-01-10T08:22:04.930Z,967.93
2023-01-10T08:23:10.554Z,967.98
2023-01-10T08:24:16.205Z,968.06
2023-01-10T08:25:21.813Z,968.03
2023-01-10T08:26:27.470Z,968.07
2023-01-10T08:27:33.081Z,968.01
2023-01-10T08:28:38.709Z,968.08
2023-01-10T08:29:44.310Z,968.12
2023-01-10T08:30:50.697Z,968.14
2023-01-10T08:31:56.323Z,968.09
2023-01-10T08:33:01.917Z,968.06
2023-01-10T08:34:07.505Z,968.05
2023-01-10T08:35:13.124Z,968.12
2023-01-10T08:36:18.709Z,968.22
2023-01-10T08:37:24.281Z,968.20
2023-01-10T08:38:29.894Z,968.20
2023-01-10T08:39:35.475Z,968.16
2023-01-10T08:40:41.106Z,968.37
2023-01-10T08:41:46.666Z,968.33
2023-01-10T08:42:52.215Z,968.32
2023-01-10T08:43:58.032Z,968.34
2023-01-10T08:45:03.567Z,968.21
2023-01-10T08:46:09.173Z,968.25
2023-01-10T08:47:14.861Z,968.17
2023-01-10T08:48:20.415Z,968.20
2023-01-10T08:49:25.937Z,968.24
2023-01-10T08:50:31.477Z,968.34
2023-01-10T08:51:37.023Z,968.33
2023-01-10T08:52:42.552Z,968.27
2023-01-10T08:53:48.068Z,968.27
2023-01-10T08:54:53.640Z,968.37
2023-01-10T08:55:59.160Z,968.26
2023-01-10T08:57:04.713Z,968.34
2023-01-10T08:58:10.252Z,968.38
2023-01-10T08:59:16.565Z,968.35
2023-01-10T09:00:22.873Z,968.31
2023-01-10T09:01:28.794Z,968.38
2023-01-10T09:02:34.398Z,968.44
2023-01-10T09:03:40.252Z,968.38
2023-01-10T09:04:45.763Z,968.46
2023-01-10T09:05:51.280Z,968.43
2023-01-10T09:06:56.784Z,968.45
2023-01-10T09:08:02.280Z,968.47
2023-01-10T09:09:07.836Z,968.43
2023-01-10T09:10:13.287Z,968.39
2023-01-10T09:11:18.830Z,968.43
2023-01-10T09:12:24.280Z,968.42
2023-01-10T09:13:29.774Z,968.37
2023-01-10T09:14:35.241Z,968.40
2023-01-10T09:15:40.748Z,968.42
2023-01-10T09:16:47.573Z,968.46
2023-01-10T09:17:53.093Z,968.42
2023-01-10T09:18:58.539Z,968.45
2023-01-10T09:20:04.716Z,968.43
2023-01-10T09:21:10.153Z,968.49
2023-01-10T09:22:15.615Z,968.46
2023-01-10T09:23:21.052Z,968.45
2023-01-10T09:24:26.488Z,968.47
2023-01-10T09:25:31.930Z,968.48
2023-01-10T09:26:38.700Z,968.50
2023-01-10T09:27:44.171Z,968.55
2023-01-10T09:28:49.587Z,968.55
2023-01-10T09:29:55.015Z,968.57
2023-01-10T09:31:00.572Z,968.55
2023-01-10T09:32:05.970Z,968.62
2023-01-10T09:33:11.434Z,968.64
2023-01-10T09:34:16.895Z,968.63
2023-01-10T09:35:22.339Z,968.63
2023-01-10T09:36:27.871Z,968.75
2023-01-10T09:37:33.311Z,968.80
2023-01-10T09:38:38.755Z,968.76
2023-01-10T09:39:44.543Z,968.80
2023-01-10T09:40:50.101Z,968.81
2023-01-10T09:41:55.572Z,968.77
2023-01-10T09:43:01.011Z,968.85
2023-01-10T09:44:06.500Z,968.84
2023-01-10T09:45:11.917Z,968.79
2023-01-10T09:46:17.585Z,968.88
2023-01-10T09:47:23.395Z,968.84
2023-01-10T09:48:28.826Z,968.89
2023-01-10T09:49:34.267Z,968.84
2023-01-10T09:50:39.701Z,968.83
2023-01-10T09:51:45.332Z,968.86
2023-01-10T09:52:50.923Z,968.89
2023-01-10T09:54:10.139Z,968.91
2023-01-10T09:55:07.968Z,968.91
2023-01-10T09:56:13.482Z,968.89
2023-01-10T09:57:19.052Z,968.98
2023-01-10T09:58:24.587Z,968.94
2023-01-10T09:59:30.094Z,968.93
2023-01-10T10:00:35.667Z,968.94
2023-01-10T10:01:42.594Z,968.96
2023-01-10T10:02:48.091Z,968.99
2023-01-10T10:03:53.722Z,969.00
2023-01-10T10:04:59.636Z,968.96
2023-01-10T10:06:12.126Z,969.05
2023-01-10T10:07:17.059Z,968.95
2023-01-10T10:08:22.620Z,968.97
2023-01-10T10:09:28.167Z,968.97
2023-01-10T10:10:33.733Z,969.04
2023-01-10T10:11:39.319Z,969.01
2023-01-10T10:12:44.958Z,969.04
2023-01-10T10:13:50.537Z,968.98
2023-01-10T10:14:56.187Z,968.93
2023-01-10T10:16:01.847Z,968.94
2023-01-10T10:17:07.586Z,968.82
2023-01-10T10:18:13.182Z,968.85
2023-01-10T10:19:18.802Z,968.81
2023-01-10T10:20:24.423Z,968.91
2023-01-10T10:21:30.209Z,968.85
2023-01-10T10:22:35.807Z,968.75
2023-01-10T10:23:41.389Z,968.85
2023-01-10T10:24:46.971Z,968.84
2023-01-10T10:25:52.592Z,968.81
2023-01-10T10:26:58.722Z,968.80
2023-01-10T10:28:04.267Z,968.93
2023-01-10T10:29:09.806Z,968.81
2023-01-10T10:30:15.363Z,968.84
2023-01-10T10:31:20.997Z,968.81
2023-01-10T10:32:26.503Z,968.80
2023-01-10T10:33:32.064Z,968.81
2023-01-10T10:34:37.615Z,968.81
2023-01-10T10:35:43.149Z,968.80
2023-01-10T10:36:48.678Z,968.79
2023-01-10T10:37:54.189Z,968.85
2023-01-10T10:38:59.700Z,968.84
2023-01-10T10:40:05.243Z,968.84
2023-01-10T10:41:10.737Z,968.80
2023-01-10T10:42:16.277Z,968.97
2023-01-10T10:43:21.839Z,968.88
2023-01-10T10:44:27.459Z,968.83
2023-01-10T10:45:33.897Z,968.84
2023-01-10T10:46:39.394Z,968.78
2023-01-10T10:47:44.892Z,968.82
2023-01-10T10:48:50.356Z,968.85
2023-01-10T10:49:55.873Z,968.78
2023-01-10T10:51:01.339Z,968.80
2023-01-10T10:52:06.805Z,968.67
2023-01-10T10:53:12.238Z,968.66
2023-01-10T10:54:17.694Z,968.67
2023-01-10T10:55:23.128Z,968.73
2023-01-10T10:56:28.748Z,968.65
2023-01-10T10:57:34.212Z,968.57
2023-01-10T10:58:39.705Z,968.63
2023-01-10T10:59:45.124Z,968.55
2023-01-10T11:00:50.756Z,968.49
2023-01-10T11:01:56.397Z,968.63
2023-01-10T11:03:01.927Z,968.62
2023-01-10T11:04:07.362Z,968.62
2023-01-10T11:05:12.779Z,968.67
2023-01-10T11:06:18.277Z,968.66
2023-01-10T11:07:23.694Z,968.70
2023-01-10T11:08:29.125Z,968.68
2023-01-10T11:09:34.880Z,968.70
2023-01-10T11:10:40.312Z,968.74
2023-01-10T11:11:45.812Z,968.78
2023-01-10T11:12:51.262Z,968.72
2023-01-10T11:13:56.723Z,968.77
2023-01-10T11:15:02.146Z,968.73
2023-01-10T11:16:07.655Z,968.78
2023-01-10T11:17:13.084Z,968.80
2023-01-10T11:18:18.532Z,968.90
2023-01-10T11:19:23.963Z,968.84
2023-01-10T11:20:30.155Z,968.99
2023-01-10T11:21:35.623Z,968.86
2023-01-10T11:22:41.104Z,968.83
2023-01-10T11:23:46.498Z,968.89
2023-01-10T11:24:51.934Z,968.86
2023-01-10T11:25:57.394Z,968.88
2023-01-10T11:27:02.853Z,968.83
2023-01-10T11:28:10.403Z,968.81
2023-01-10T11:29:16.490Z,968.85
2023-01-10T11:30:21.887Z,968.90
2023-01-10T11:31:27.419Z,968.76
2023-01-10T11:32:32.795Z,968.78
2023-01-10T11:33:39.005Z,968.79
2023-01-10T11:34:44.505Z,968.75
2023-01-10T11:35:49.970Z,968.81
2023-01-10T11:36:55.376Z,968.79
2023-01-10T11:38:00.807Z,968.70
2023-01-10T11:39:06.294Z,968.71
2023-01-10T11:40:11.692Z,968.77
2023-01-10T11:41:17.113Z,968.72
2023-01-10T11:42:22.530Z,968.69
2023-01-10T11:43:28.408Z,968.85
2023-01-10T11:44:33.832Z,968.73
2023-01-10T11:45:39.263Z,968.75
2023-01-10T11:46:44.691Z,968.72
2023-01-10T11:47:50.125Z,968.74
2023-01-10T11:49:05.465Z,968.79
2023-01-10T11:50:06.870Z,968.74
2023-01-10T11:51:12.290Z,968.71
2023-01-10T11:52:17.715Z,968.74
2023-01-10T11:53:23.963Z,968.75
2023-01-10T11:54:29.396Z,968.73
2023-01-10T11:55:34.887Z,968.68
2023-01-10T11:56:40.393Z,968.73
2023-01-10T11:57:45.943Z,968.72
2023-01-10T11:58:51.421Z,968.69
2023-01-10T11:59:57.011Z,968.71
2023-01-10T12:01:02.534Z,968.68
2023-01-10T12:02:08.033Z,968.73
2023-01-10T12:03:13.535Z,968.76
2023-01-10T12:04:19.027Z,968.75
2023-01-10T12:05:24.596Z,968.71
2023-01-10T12:06:30.059Z,968.78
2023-01-10T12:07:35.532Z,968.69
2023-01-10T12:08:41.000Z,968.70
2023-01-10T12:09:46.513Z,968.72
2023-01-10T12:10:51.956Z,968.68
2023-01-10T12:11:57.456Z,968.61
2023-01-10T12:13:02.971Z,968.77
2023-01-10T12:14:08.384Z,968.69
2023-01-10T12:15:13.825Z,968.70
2023-01-10T12:16:19.313Z,968.72
2023-01-10T12:17:24.790Z,968.68
2023-01-10T12:18:30.230Z,968.64
2023-01-10T12:19:35.706Z,968.65
2023-01-10T12:20:41.188Z,968.59
2023-01-10T12:21:46.687Z,968.63
2023-01-10T12:22:52.172Z,968.52
2023-01-10T12:23:57.658Z,968.62
2023-01-10T12:25:03.897Z,968.55
2023-01-10T12:26:12.192Z,968.60
2023-01-10T12:27:17.804Z,968.53
2023-01-10T12:28:23.278Z,968.60
2023-01-10T12:29:28.664Z,968.49
2023-01-10T12:30:34.110Z,968.34
2023-01-10T12:31:39.511Z,968.41
2023-01-10T12:32:44.954Z,968.36
2023-01-10T12:33:50.382Z,968.38
2023-01-10T12:34:57.759Z,968.29
2023-01-10T12:36:03.865Z,968.36
2023-01-10T12:37:09.357Z,968.30
2023-01-10T12:38:14.866Z,968.30
2023-01-10T12:39:20.362Z,968.31
2023-01-10T12:40:25.878Z,968.28
2023-01-10T12:41:31.382Z,968.30
2023-01-10T12:42:36.904Z,968.35
2023-01-10T12:43:42.448Z,968.22
2023-01-10T12:44:48.019Z,968.23
2023-01-10T12:45:54.291Z,968.20
2023-01-10T12:47:07.343Z,968.23
2023-01-10T12:48:11.340Z,968.29
2023-01-10T12:49:16.865Z,968.36
2023-01-10T12:50:22.418Z,968.44
2023-01-10T12:51:27.924Z,968.31
2023-01-10T12:52:33.441Z,968.35
2023-01-10T12:53:38.912Z,968.31
2023-01-10T12:54:44.402Z,968.28
2023-01-10T12:55:49.868Z,968.25
2023-01-10T12:56:55.325Z,968.30
2023-01-10T12:58:00.820Z,968.24
2023-01-10T12:59:06.265Z,968.26
2023-01-10T13:00:11.726Z,968.29
2023-01-10T13:01:17.316Z,968.24
2023-01-10T13:02:22.976Z,968.20
2023-01-10T13:03:28.510Z,968.20
2023-01-10T13:04:33.984Z,968.24
2023-01-10T13:05:40.254Z,968.30
2023-01-10T13:06:45.774Z,968.23
2023-01-10T13:07:51.284Z,968.26
2023-01-10T13:08:56.793Z,968.30
2023-01-10T13:10:03.123Z,968.25
2023-01-10T13:11:08.646Z,968.33
2023-01-10T13:12:14.163Z,968.32
2023-01-10T13:13:19.692Z,968.31
2023-01-10T13:14:25.533Z,968.28
2023-01-10T13:15:31.190Z,968.29
2023-01-10T13:16:36.681Z,968.31
2023-01-10T13:17:42.243Z,968.34
2023-01-10T13:18:47.771Z,968.26
2023-01-10T13:19:53.289Z,968.30
2023-01-10T13:20:58.813Z,968.28
2023-01-10T13:22:04.326Z,968.24
2023-01-10T13:23:09.859Z,968.19
2023-01-10T13:24:15.376Z,968.19
2023-01-10T13:25:20.905Z,968.20
2023-01-10T13:26:26.380Z,968.20
2023-01-10T13:27:31.865Z,968.17
2023-01-10T13:28:37.352Z,968.25
2023-01-10T13:29:43.329Z,968.23
2023-01-10T13:30:48.861Z,968.19
2023-01-10T13:31:54.326Z,968.16
2023-01-10T13:32:59.814Z,968.21
2023-01-10T13:34:05.295Z,968.26
2023-01-10T13:35:10.737Z,968.14
2023-01-10T13:36:16.169Z,968.11
2023-01-10T13:37:21.604Z,968.20
2023-01-10T13:38:27.044Z,968.22
2023-01-10T13:39:32.499Z,968.21
2023-01-10T13:40:37.958Z,968.15